sensor_id;sensor_type;location;lat;lon;timestamp;P1;durP1;ratioP1;P2;durP2;ratioP2
4698;SDS011;33708;49.466;11.176;2022-10-19T00:00:50;195.00;;;11.33;;
4698;SDS011;33708;49.466;11.176;2022-10-19T00:03:27;216.27;;;12.30;;
4698;SDS011;33708;49.466;11.176;2022-10-19T00:05:53;169.90;;;8.77;;
4698;SDS011;33708;49.466;11.176;2022-10-19T00:08:19;46.73;;;7.80;;
4698;SDS011;33708;49.466;11.176;2022-10-19T00:10:48;324.83;;;10.77;;
4698;SDS011;33708;49.466;11.176;2022-10-19T00:13:14;313.83;;;11.53;;
4698;SDS011;33708;49.466;11.176;2022-10-19T00:15:40;207.07;;;9.60;;
4698;SDS011;33708;49.466;11.176;2022-10-19T00:18:06;82.17;;;8.60;;
4698;SDS011;33708;49.466;11.176;2022-10-19T00:20:33;139.30;;;10.53;;
4698;SDS011;33708;49.466;11.176;2022-10-19T00:23:00;142.37;;;10.63;;
4698;SDS011;33708;49.466;11.176;2022-10-19T00:25:26;113.23;;;9.27;;
4698;SDS011;33708;49.466;11.176;2022-10-19T00:27:51;115.77;;;8.43;;
4698;SDS011;33708;49.466;11.176;2022-10-19T00:30:17;110.67;;;7.90;;
4698;SDS011;33708;49.466;11.176;2022-10-19T00:32:43;49.10;;;6.60;;
4698;SDS011;33708;49.466;11.176;2022-10-19T00:35:09;51.17;;;6.70;;
4698;SDS011;33708;49.466;11.176;2022-10-19T00:37:34;174.83;;;8.77;;
4698;SDS011;33708;49.466;11.176;2022-10-19T00:40:00;93.73;;;7.00;;
4698;SDS011;33708;49.466;11.176;2022-10-19T00:42:26;209.23;;;9.77;;
4698;SDS011;33708;49.466;11.176;2022-10-19T00:44:58;265.57;;;10.17;;
4698;SDS011;33708;49.466;11.176;2022-10-19T00:47:26;145.40;;;8.00;;
4698;SDS011;33708;49.466;11.176;2022-10-19T00:49:53;204.23;;;9.70;;
4698;SDS011;33708;49.466;11.176;2022-10-19T00:52:20;102.60;;;7.83;;
4698;SDS011;33708;49.466;11.176;2022-10-19T00:54:48;106.70;;;7.13;;
4698;SDS011;33708;49.466;11.176;2022-10-19T00:57:17;370.77;;;11.70;;
4698;SDS011;33708;49.466;11.176;2022-10-19T00:59:44;316.87;;;10.67;;
4698;SDS011;33708;49.466;11.176;2022-10-19T01:02:11;355.97;;;11.93;;
4698;SDS011;33708;49.466;11.176;2022-10-19T01:04:37;301.67;;;10.20;;
4698;SDS011;33708;49.466;11.176;2022-10-19T01:07:08;321.10;;;11.67;;
4698;SDS011;33708;49.466;11.176;2022-10-19T01:09:35;331.87;;;10.83;;
4698;SDS011;33708;49.466;11.176;2022-10-19T01:12:11;237.23;;;11.80;;
4698;SDS011;33708;49.466;11.176;2022-10-19T01:15:07;332.23;;;10.93;;
4698;SDS011;33708;49.466;11.176;2022-10-19T01:17:57;618.27;;;18.60;;
4698;SDS011;33708;49.466;11.176;2022-10-19T01:23:33;163.67;;;7.97;;
4698;SDS011;33708;49.466;11.176;2022-10-19T01:29:13;78.30;;;5.80;;
4698;SDS011;33708;49.466;11.176;2022-10-19T01:32:07;395.47;;;12.20;;
4698;SDS011;33708;49.466;11.176;2022-10-19T01:34:41;363.17;;;11.33;;
4698;SDS011;33708;49.466;11.176;2022-10-19T01:37:16;321.43;;;10.20;;
4698;SDS011;33708;49.466;11.176;2022-10-19T01:43:01;215.43;;;8.13;;
4698;SDS011;33708;49.466;11.176;2022-10-19T01:48:15;330.53;;;10.83;;
4698;SDS011;33708;49.466;11.176;2022-10-19T01:50:48;240.00;;;8.93;;
4698;SDS011;33708;49.466;11.176;2022-10-19T01:53:17;182.70;;;6.90;;
4698;SDS011;33708;49.466;11.176;2022-10-19T01:55:44;130.83;;;7.00;;
4698;SDS011;33708;49.466;11.176;2022-10-19T01:58:15;52.43;;;5.50;;
4698;SDS011;33708;49.466;11.176;2022-10-19T02:00:44;101.63;;;6.60;;
4698;SDS011;33708;49.466;11.176;2022-10-19T02:03:13;100.57;;;5.83;;
4698;SDS011;33708;49.466;11.176;2022-10-19T02:05:41;68.83;;;5.90;;
4698;SDS011;33708;49.466;11.176;2022-10-19T02:08:12;184.97;;;6.87;;
4698;SDS011;33708;49.466;11.176;2022-10-19T02:10:43;144.47;;;6.67;;
4698;SDS011;33708;49.466;11.176;2022-10-19T02:13:11;203.00;;;7.43;;
4698;SDS011;33708;49.466;11.176;2022-10-19T02:15:40;101.13;;;5.80;;
4698;SDS011;33708;49.466;11.176;2022-10-19T02:18:11;184.60;;;7.00;;
4698;SDS011;33708;49.466;11.176;2022-10-19T02:20:41;175.17;;;8.00;;
4698;SDS011;33708;49.466;11.176;2022-10-19T02:23:07;237.23;;;6.90;;
4698;SDS011;33708;49.466;11.176;2022-10-19T02:25:33;181.60;;;6.57;;
4698;SDS011;33708;49.466;11.176;2022-10-19T02:28:00;123.43;;;5.30;;
4698;SDS011;33708;49.466;11.176;2022-10-19T02:30:26;54.30;;;4.67;;
4698;SDS011;33708;49.466;11.176;2022-10-19T02:32:52;182.87;;;6.00;;
4698;SDS011;33708;49.466;11.176;2022-10-19T02:35:18;272.27;;;6.83;;
4698;SDS011;33708;49.466;11.176;2022-10-19T02:37:44;104.20;;;4.90;;
4698;SDS011;33708;49.466;11.176;2022-10-19T02:40:10;31.23;;;3.40;;
4698;SDS011;33708;49.466;11.176;2022-10-19T02:45:12;40.00;;;3.60;;
4698;SDS011;33708;49.466;11.176;2022-10-19T02:47:51;46.20;;;3.73;;
4698;SDS011;33708;49.466;11.176;2022-10-19T02:50:22;136.60;;;4.50;;
4698;SDS011;33708;49.466;11.176;2022-10-19T02:52:48;58.50;;;2.97;;
4698;SDS011;33708;49.466;11.176;2022-10-19T02:55:14;39.70;;;3.40;;
4698;SDS011;33708;49.466;11.176;2022-10-19T02:57:40;44.90;;;4.13;;
4698;SDS011;33708;49.466;11.176;2022-10-19T03:00:06;10.63;;;3.20;;
4698;SDS011;33708;49.466;11.176;2022-10-19T03:02:32;112.73;;;3.97;;
4698;SDS011;33708;49.466;11.176;2022-10-19T03:04:58;32.37;;;3.53;;
4698;SDS011;33708;49.466;11.176;2022-10-19T03:07:24;150.97;;;5.17;;
4698;SDS011;33708;49.466;11.176;2022-10-19T03:09:49;56.07;;;4.33;;
4698;SDS011;33708;49.466;11.176;2022-10-19T03:12:15;20.17;;;4.33;;
4698;SDS011;33708;49.466;11.176;2022-10-19T03:14:41;87.47;;;4.73;;
4698;SDS011;33708;49.466;11.176;2022-10-19T03:17:07;21.77;;;4.17;;
4698;SDS011;33708;49.466;11.176;2022-10-19T03:19:33;30.23;;;3.30;;
4698;SDS011;33708;49.466;11.176;2022-10-19T03:21:59;61.33;;;4.23;;
4698;SDS011;33708;49.466;11.176;2022-10-19T03:24:25;9.23;;;3.10;;
4698;SDS011;33708;49.466;11.176;2022-10-19T03:26:51;13.83;;;3.27;;
4698;SDS011;33708;49.466;11.176;2022-10-19T03:29:17;8.20;;;2.87;;
4698;SDS011;33708;49.466;11.176;2022-10-19T03:31:43;40.20;;;3.50;;
4698;SDS011;33708;49.466;11.176;2022-10-19T03:34:08;10.80;;;2.67;;
4698;SDS011;33708;49.466;11.176;2022-10-19T03:36:35;60.13;;;4.37;;
4698;SDS011;33708;49.466;11.176;2022-10-19T03:39:04;19.60;;;3.33;;
4698;SDS011;33708;49.466;11.176;2022-10-19T03:41:39;27.63;;;3.00;;
4698;SDS011;33708;49.466;11.176;2022-10-19T03:44:06;79.60;;;4.17;;
4698;SDS011;33708;49.466;11.176;2022-10-19T03:46:33;33.17;;;4.10;;
4698;SDS011;33708;49.466;11.176;2022-10-19T03:48:59;142.07;;;5.43;;
4698;SDS011;33708;49.466;11.176;2022-10-19T03:51:26;96.60;;;4.70;;
4698;SDS011;33708;49.466;11.176;2022-10-19T03:53:54;51.30;;;4.17;;
4698;SDS011;33708;49.466;11.176;2022-10-19T03:56:22;133.53;;;4.60;;
4698;SDS011;33708;49.466;11.176;2022-10-19T03:58:50;13.90;;;3.13;;
4698;SDS011;33708;49.466;11.176;2022-10-19T04:01:18;10.23;;;3.67;;
4698;SDS011;33708;49.466;11.176;2022-10-19T04:03:46;36.80;;;4.47;;
4698;SDS011;33708;49.466;11.176;2022-10-19T04:06:12;23.13;;;4.17;;
4698;SDS011;33708;49.466;11.176;2022-10-19T04:08:40;59.13;;;4.23;;
4698;SDS011;33708;49.466;11.176;2022-10-19T04:11:07;33.07;;;3.83;;
4698;SDS011;33708;49.466;11.176;2022-10-19T04:13:36;11.80;;;3.70;;
4698;SDS011;33708;49.466;11.176;2022-10-19T04:16:02;9.80;;;3.13;;
4698;SDS011;33708;49.466;11.176;2022-10-19T04:18:28;14.13;;;4.20;;
4698;SDS011;33708;49.466;11.176;2022-10-19T04:20:54;9.93;;;3.47;;
4698;SDS011;33708;49.466;11.176;2022-10-19T04:23:27;52.67;;;3.70;;
4698;SDS011;33708;49.466;11.176;2022-10-19T04:25:58;28.43;;;4.20;;
4698;SDS011;33708;49.466;11.176;2022-10-19T04:28:25;18.07;;;4.00;;
4698;SDS011;33708;49.466;11.176;2022-10-19T04:30:50;8.13;;;3.37;;
4698;SDS011;33708;49.466;11.176;2022-10-19T04:33:16;156.07;;;5.60;;
4698;SDS011;33708;49.466;11.176;2022-10-19T04:35:41;18.10;;;3.97;;
4698;SDS011;33708;49.466;11.176;2022-10-19T04:38:07;130.23;;;5.70;;
4698;SDS011;33708;49.466;11.176;2022-10-19T04:40:33;86.83;;;4.90;;
4698;SDS011;33708;49.466;11.176;2022-10-19T04:43:00;68.63;;;5.60;;
4698;SDS011;33708;49.466;11.176;2022-10-19T04:45:26;177.77;;;6.90;;
4698;SDS011;33708;49.466;11.176;2022-10-19T04:47:53;194.00;;;7.43;;
4698;SDS011;33708;49.466;11.176;2022-10-19T04:50:20;241.07;;;7.90;;
4698;SDS011;33708;49.466;11.176;2022-10-19T04:52:47;192.57;;;8.23;;
4698;SDS011;33708;49.466;11.176;2022-10-19T04:55:12;68.13;;;5.83;;
4698;SDS011;33708;49.466;11.176;2022-10-19T04:57:38;61.63;;;5.03;;
4698;SDS011;33708;49.466;11.176;2022-10-19T05:00:04;141.67;;;6.13;;
4698;SDS011;33708;49.466;11.176;2022-10-19T05:02:30;101.87;;;5.27;;
4698;SDS011;33708;49.466;11.176;2022-10-19T05:04:55;215.80;;;7.53;;
4698;SDS011;33708;49.466;11.176;2022-10-19T05:07:21;33.00;;;5.00;;
4698;SDS011;33708;49.466;11.176;2022-10-19T05:09:47;26.73;;;4.67;;
4698;SDS011;33708;49.466;11.176;2022-10-19T05:12:12;209.87;;;7.87;;
4698;SDS011;33708;49.466;11.176;2022-10-19T05:14:38;165.50;;;6.77;;
4698;SDS011;33708;49.466;11.176;2022-10-19T05:17:03;92.70;;;5.77;;
4698;SDS011;33708;49.466;11.176;2022-10-19T05:19:29;206.90;;;7.43;;
4698;SDS011;33708;49.466;11.176;2022-10-19T05:21:55;350.10;;;9.80;;
4698;SDS011;33708;49.466;11.176;2022-10-19T05:24:20;391.13;;;9.93;;
4698;SDS011;33708;49.466;11.176;2022-10-19T05:26:46;459.17;;;13.50;;
4698;SDS011;33708;49.466;11.176;2022-10-19T05:29:12;241.80;;;9.50;;
4698;SDS011;33708;49.466;11.176;2022-10-19T05:31:38;363.07;;;9.90;;
4698;SDS011;33708;49.466;11.176;2022-10-19T05:34:03;405.40;;;11.70;;
4698;SDS011;33708;49.466;11.176;2022-10-19T05:36:33;257.93;;;8.70;;
4698;SDS011;33708;49.466;11.176;2022-10-19T05:39:05;128.70;;;7.00;;
4698;SDS011;33708;49.466;11.176;2022-10-19T05:41:43;399.07;;;10.60;;
4698;SDS011;33708;49.466;11.176;2022-10-19T05:44:17;415.20;;;12.90;;
4698;SDS011;33708;49.466;11.176;2022-10-19T05:46:44;442.33;;;12.97;;
4698;SDS011;33708;49.466;11.176;2022-10-19T05:49:10;313.40;;;10.13;;
4698;SDS011;33708;49.466;11.176;2022-10-19T05:51:36;355.43;;;9.87;;
4698;SDS011;33708;49.466;11.176;2022-10-19T05:54:02;378.57;;;11.13;;
4698;SDS011;33708;49.466;11.176;2022-10-19T05:56:29;269.47;;;10.03;;
4698;SDS011;33708;49.466;11.176;2022-10-19T05:58:56;170.43;;;7.60;;
4698;SDS011;33708;49.466;11.176;2022-10-19T06:01:24;137.63;;;6.90;;
4698;SDS011;33708;49.466;11.176;2022-10-19T06:03:50;67.60;;;5.60;;
4698;SDS011;33708;49.466;11.176;2022-10-19T06:06:17;54.83;;;5.50;;
4698;SDS011;33708;49.466;11.176;2022-10-19T06:08:43;29.57;;;5.70;;
4698;SDS011;33708;49.466;11.176;2022-10-19T06:11:10;204.07;;;7.87;;
4698;SDS011;33708;49.466;11.176;2022-10-19T06:13:36;311.50;;;8.70;;
4698;SDS011;33708;49.466;11.176;2022-10-19T06:16:03;250.27;;;7.83;;
4698;SDS011;33708;49.466;11.176;2022-10-19T06:18:29;242.33;;;8.10;;
4698;SDS011;33708;49.466;11.176;2022-10-19T06:20:59;102.17;;;6.67;;
4698;SDS011;33708;49.466;11.176;2022-10-19T06:23:30;98.97;;;6.03;;
4698;SDS011;33708;49.466;11.176;2022-10-19T06:25:57;82.63;;;5.03;;
4698;SDS011;33708;49.466;11.176;2022-10-19T06:28:23;146.03;;;7.50;;
4698;SDS011;33708;49.466;11.176;2022-10-19T06:30:48;263.53;;;9.33;;
4698;SDS011;33708;49.466;11.176;2022-10-19T06:33:14;169.13;;;7.80;;
4698;SDS011;33708;49.466;11.176;2022-10-19T06:35:40;67.70;;;5.90;;
4698;SDS011;33708;49.466;11.176;2022-10-19T06:38:07;62.27;;;6.03;;
4698;SDS011;33708;49.466;11.176;2022-10-19T06:40:33;182.53;;;6.70;;
4698;SDS011;33708;49.466;11.176;2022-10-19T06:42:59;156.40;;;6.60;;
4698;SDS011;33708;49.466;11.176;2022-10-19T06:45:25;191.87;;;6.90;;
4698;SDS011;33708;49.466;11.176;2022-10-19T06:47:51;78.13;;;5.07;;
4698;SDS011;33708;49.466;11.176;2022-10-19T06:50:17;212.00;;;6.90;;
4698;SDS011;33708;49.466;11.176;2022-10-19T06:52:43;53.73;;;5.70;;
4698;SDS011;33708;49.466;11.176;2022-10-19T06:55:10;155.00;;;6.47;;
4698;SDS011;33708;49.466;11.176;2022-10-19T06:57:35;59.60;;;5.03;;
4698;SDS011;33708;49.466;11.176;2022-10-19T07:00:01;34.80;;;4.47;;
4698;SDS011;33708;49.466;11.176;2022-10-19T07:02:28;102.37;;;5.23;;
4698;SDS011;33708;49.466;11.176;2022-10-19T07:04:53;274.30;;;7.97;;
4698;SDS011;33708;49.466;11.176;2022-10-19T07:07:19;92.97;;;5.27;;
4698;SDS011;33708;49.466;11.176;2022-10-19T07:09:45;214.03;;;7.20;;
4698;SDS011;33708;49.466;11.176;2022-10-19T07:12:12;203.70;;;7.10;;
4698;SDS011;33708;49.466;11.176;2022-10-19T07:14:38;74.07;;;4.50;;
4698;SDS011;33708;49.466;11.176;2022-10-19T07:17:07;131.67;;;6.03;;
4698;SDS011;33708;49.466;11.176;2022-10-19T07:19:35;104.50;;;5.80;;
4698;SDS011;33708;49.466;11.176;2022-10-19T07:22:02;161.40;;;6.63;;
4698;SDS011;33708;49.466;11.176;2022-10-19T07:24:27;401.43;;;9.33;;
4698;SDS011;33708;49.466;11.176;2022-10-19T07:26:53;354.27;;;9.73;;
4698;SDS011;33708;49.466;11.176;2022-10-19T07:29:19;273.77;;;8.70;;
4698;SDS011;33708;49.466;11.176;2022-10-19T07:31:45;303.67;;;8.33;;
4698;SDS011;33708;49.466;11.176;2022-10-19T07:34:11;26.67;;;4.20;;
4698;SDS011;33708;49.466;11.176;2022-10-19T07:36:37;135.83;;;6.40;;
4698;SDS011;33708;49.466;11.176;2022-10-19T07:39:04;57.67;;;4.77;;
4698;SDS011;33708;49.466;11.176;2022-10-19T07:41:31;103.73;;;6.13;;
4698;SDS011;33708;49.466;11.176;2022-10-19T07:43:58;160.07;;;6.80;;
4698;SDS011;33708;49.466;11.176;2022-10-19T07:46:25;280.20;;;9.80;;
4698;SDS011;33708;49.466;11.176;2022-10-19T07:49:01;178.37;;;7.13;;
4698;SDS011;33708;49.466;11.176;2022-10-19T07:51:29;33.33;;;5.20;;
4698;SDS011;33708;49.466;11.176;2022-10-19T07:53:54;14.47;;;3.83;;
4698;SDS011;33708;49.466;11.176;2022-10-19T07:56:22;206.50;;;9.03;;
4698;SDS011;33708;49.466;11.176;2022-10-19T07:58:50;139.77;;;6.93;;
4698;SDS011;33708;49.466;11.176;2022-10-19T08:01:17;162.73;;;7.10;;
4698;SDS011;33708;49.466;11.176;2022-10-19T08:03:45;235.07;;;8.60;;
4698;SDS011;33708;49.466;11.176;2022-10-19T08:06:12;121.77;;;5.90;;
4698;SDS011;33708;49.466;11.176;2022-10-19T08:08:40;127.77;;;6.63;;
4698;SDS011;33708;49.466;11.176;2022-10-19T08:11:10;133.10;;;5.33;;
4698;SDS011;33708;49.466;11.176;2022-10-19T08:13:38;511.83;;;13.20;;
4698;SDS011;33708;49.466;11.176;2022-10-19T08:16:05;240.13;;;7.50;;
4698;SDS011;33708;49.466;11.176;2022-10-19T08:18:43;32.47;;;3.43;;
4698;SDS011;33708;49.466;11.176;2022-10-19T08:21:09;369.17;;;9.27;;
4698;SDS011;33708;49.466;11.176;2022-10-19T08:23:35;20.93;;;3.83;;
4698;SDS011;33708;49.466;11.176;2022-10-19T08:26:00;27.03;;;3.50;;
4698;SDS011;33708;49.466;11.176;2022-10-19T08:28:26;85.63;;;4.30;;
4698;SDS011;33708;49.466;11.176;2022-10-19T08:30:51;181.57;;;5.60;;
4698;SDS011;33708;49.466;11.176;2022-10-19T08:33:22;56.13;;;4.43;;
4698;SDS011;33708;49.466;11.176;2022-10-19T08:35:48;58.60;;;3.80;;
4698;SDS011;33708;49.466;11.176;2022-10-19T08:38:13;42.20;;;3.87;;
4698;SDS011;33708;49.466;11.176;2022-10-19T08:40:39;72.63;;;4.13;;
4698;SDS011;33708;49.466;11.176;2022-10-19T08:43:26;106.60;;;4.80;;
4698;SDS011;33708;49.466;11.176;2022-10-19T08:48:33;52.23;;;4.70;;
4698;SDS011;33708;49.466;11.176;2022-10-19T08:51:02;97.47;;;5.80;;
4698;SDS011;33708;49.466;11.176;2022-10-19T09:01:15;10.03;;;4.80;;
4698;SDS011;33708;49.466;11.176;2022-10-19T09:03:55;12.00;;;5.87;;
4698;SDS011;33708;49.466;11.176;2022-10-19T09:06:45;15.33;;;5.47;;
4698;SDS011;33708;49.466;11.176;2022-10-19T09:09:38;12.30;;;5.47;;
4698;SDS011;33708;49.466;11.176;2022-10-19T09:12:13;12.17;;;5.80;;
4698;SDS011;33708;49.466;11.176;2022-10-19T09:14:47;13.80;;;6.33;;
4698;SDS011;33708;49.466;11.176;2022-10-19T09:17:16;13.63;;;6.97;;
4698;SDS011;33708;49.466;11.176;2022-10-19T09:19:41;14.07;;;7.10;;
4698;SDS011;33708;49.466;11.176;2022-10-19T09:22:18;20.57;;;9.03;;
4698;SDS011;33708;49.466;11.176;2022-10-19T09:24:51;16.13;;;8.40;;
4698;SDS011;33708;49.466;11.176;2022-10-19T09:27:20;18.00;;;8.87;;
4698;SDS011;33708;49.466;11.176;2022-10-19T09:29:55;18.47;;;9.10;;
4698;SDS011;33708;49.466;11.176;2022-10-19T09:32:27;16.33;;;8.10;;
4698;SDS011;33708;49.466;11.176;2022-10-19T09:35:02;17.43;;;8.80;;
4698;SDS011;33708;49.466;11.176;2022-10-19T09:37:44;18.00;;;8.57;;
4698;SDS011;33708;49.466;11.176;2022-10-19T09:40:13;18.07;;;9.33;;
4698;SDS011;33708;49.466;11.176;2022-10-19T09:42:42;17.73;;;8.70;;
4698;SDS011;33708;49.466;11.176;2022-10-19T09:47:52;18.37;;;9.07;;
4698;SDS011;33708;49.466;11.176;2022-10-19T09:50:19;17.20;;;8.90;;
4698;SDS011;33708;49.466;11.176;2022-10-19T09:52:47;18.83;;;9.13;;
4698;SDS011;33708;49.466;11.176;2022-10-19T09:55:38;20.30;;;9.90;;
4698;SDS011;33708;49.466;11.176;2022-10-19T10:00:43;15.10;;;8.60;;
4698;SDS011;33708;49.466;11.176;2022-10-19T10:06:09;25.27;;;9.23;;
4698;SDS011;33708;49.466;11.176;2022-10-19T10:08:43;16.30;;;8.70;;
4698;SDS011;33708;49.466;11.176;2022-10-19T10:11:13;15.83;;;8.50;;
4698;SDS011;33708;49.466;11.176;2022-10-19T10:13:41;19.73;;;9.27;;
4698;SDS011;33708;49.466;11.176;2022-10-19T10:16:13;14.87;;;8.63;;
4698;SDS011;33708;49.466;11.176;2022-10-19T10:18:52;20.33;;;9.80;;
4698;SDS011;33708;49.466;11.176;2022-10-19T10:21:27;21.00;;;8.73;;
4698;SDS011;33708;49.466;11.176;2022-10-19T10:24:03;19.00;;;9.20;;
4698;SDS011;33708;49.466;11.176;2022-10-19T10:26:50;16.83;;;8.97;;
4698;SDS011;33708;49.466;11.176;2022-10-19T10:29:19;18.67;;;9.83;;
4698;SDS011;33708;49.466;11.176;2022-10-19T10:37:03;15.43;;;9.10;;
4698;SDS011;33708;49.466;11.176;2022-10-19T10:39:32;16.20;;;9.70;;
4698;SDS011;33708;49.466;11.176;2022-10-19T10:42:07;20.10;;;10.23;;
4698;SDS011;33708;49.466;11.176;2022-10-19T10:44:38;16.40;;;9.10;;
4698;SDS011;33708;49.466;11.176;2022-10-19T10:47:14;24.23;;;9.90;;
4698;SDS011;33708;49.466;11.176;2022-10-19T10:49:41;20.27;;;8.97;;
4698;SDS011;33708;49.466;11.176;2022-10-19T10:52:16;20.10;;;9.80;;
4698;SDS011;33708;49.466;11.176;2022-10-19T10:54:55;24.20;;;11.60;;
4698;SDS011;33708;49.466;11.176;2022-10-19T10:57:23;16.20;;;9.67;;
4698;SDS011;33708;49.466;11.176;2022-10-19T11:02:59;19.13;;;10.20;;
4698;SDS011;33708;49.466;11.176;2022-10-19T11:05:37;16.70;;;9.40;;
4698;SDS011;33708;49.466;11.176;2022-10-19T11:10:58;22.63;;;11.13;;
4698;SDS011;33708;49.466;11.176;2022-10-19T11:16:14;15.13;;;8.37;;
4698;SDS011;33708;49.466;11.176;2022-10-19T11:18:42;16.03;;;8.53;;
4698;SDS011;33708;49.466;11.176;2022-10-19T11:21:31;17.70;;;9.30;;
4698;SDS011;33708;49.466;11.176;2022-10-19T11:29:55;16.60;;;9.37;;
4698;SDS011;33708;49.466;11.176;2022-10-19T11:37:45;20.13;;;9.87;;
4698;SDS011;33708;49.466;11.176;2022-10-19T11:43:26;13.90;;;8.53;;
4698;SDS011;33708;49.466;11.176;2022-10-19T11:45:57;16.10;;;8.17;;
4698;SDS011;33708;49.466;11.176;2022-10-19T11:51:34;16.23;;;9.70;;
4698;SDS011;33708;49.466;11.176;2022-10-19T11:57:22;13.53;;;8.57;;
4698;SDS011;33708;49.466;11.176;2022-10-19T12:11:05;17.70;;;9.73;;
4698;SDS011;33708;49.466;11.176;2022-10-19T12:13:53;16.43;;;8.40;;
4698;SDS011;33708;49.466;11.176;2022-10-19T12:16:36;15.30;;;8.80;;
4698;SDS011;33708;49.466;11.176;2022-10-19T12:19:11;14.97;;;8.10;;
4698;SDS011;33708;49.466;11.176;2022-10-19T12:21:52;15.57;;;8.40;;
4698;SDS011;33708;49.466;11.176;2022-10-19T12:24:23;17.33;;;8.10;;
4698;SDS011;33708;49.466;11.176;2022-10-19T12:26:50;16.93;;;8.03;;
4698;SDS011;33708;49.466;11.176;2022-10-19T12:29:25;16.00;;;8.40;;
4698;SDS011;33708;49.466;11.176;2022-10-19T12:32:01;14.53;;;7.90;;
4698;SDS011;33708;49.466;11.176;2022-10-19T12:37:38;20.90;;;7.67;;
4698;SDS011;33708;49.466;11.176;2022-10-19T12:40:30;14.80;;;8.63;;
4698;SDS011;33708;49.466;11.176;2022-10-19T12:43:02;13.07;;;6.90;;
4698;SDS011;33708;49.466;11.176;2022-10-19T12:45:50;16.07;;;7.53;;
4698;SDS011;33708;49.466;11.176;2022-10-19T12:48:34;13.23;;;7.60;;
4698;SDS011;33708;49.466;11.176;2022-10-19T12:51:03;15.90;;;7.30;;
4698;SDS011;33708;49.466;11.176;2022-10-19T12:53:37;15.60;;;6.93;;
4698;SDS011;33708;49.466;11.176;2022-10-19T12:56:05;11.83;;;6.70;;
4698;SDS011;33708;49.466;11.176;2022-10-19T12:58:43;19.13;;;8.20;;
4698;SDS011;33708;49.466;11.176;2022-10-19T13:01:17;12.80;;;7.20;;
4698;SDS011;33708;49.466;11.176;2022-10-19T13:04:09;12.60;;;6.63;;
4698;SDS011;33708;49.466;11.176;2022-10-19T13:06:47;11.43;;;6.27;;
4698;SDS011;33708;49.466;11.176;2022-10-19T13:09:21;12.80;;;5.53;;
4698;SDS011;33708;49.466;11.176;2022-10-19T13:22:40;17.37;;;7.17;;
4698;SDS011;33708;49.466;11.176;2022-10-19T13:27:50;17.30;;;6.90;;
4698;SDS011;33708;49.466;11.176;2022-10-19T13:38:33;14.03;;;6.20;;
4698;SDS011;33708;49.466;11.176;2022-10-19T13:57:03;16.10;;;6.67;;
4698;SDS011;33708;49.466;11.176;2022-10-19T14:10:45;10.87;;;5.80;;
4698;SDS011;33708;49.466;11.176;2022-10-19T14:13:15;9.93;;;5.27;;
4698;SDS011;33708;49.466;11.176;2022-10-19T14:15:49;13.67;;;5.70;;
4698;SDS011;33708;49.466;11.176;2022-10-19T14:18:22;13.80;;;5.93;;
4698;SDS011;33708;49.466;11.176;2022-10-19T14:23:52;10.30;;;4.87;;
4698;SDS011;33708;49.466;11.176;2022-10-19T14:26:19;14.80;;;5.80;;
4698;SDS011;33708;49.466;11.176;2022-10-19T14:28:50;8.87;;;4.60;;
4698;SDS011;33708;49.466;11.176;2022-10-19T14:31:22;15.87;;;5.53;;
4698;SDS011;33708;49.466;11.176;2022-10-19T14:33:59;10.67;;;5.57;;
4698;SDS011;33708;49.466;11.176;2022-10-19T14:36:27;10.90;;;4.90;;
4698;SDS011;33708;49.466;11.176;2022-10-19T14:38:58;12.40;;;6.63;;
4698;SDS011;33708;49.466;11.176;2022-10-19T14:41:28;12.27;;;5.90;;
4698;SDS011;33708;49.466;11.176;2022-10-19T14:43:57;13.77;;;6.80;;
4698;SDS011;33708;49.466;11.176;2022-10-19T14:46:25;18.10;;;6.10;;
4698;SDS011;33708;49.466;11.176;2022-10-19T14:49:01;12.10;;;6.23;;
4698;SDS011;33708;49.466;11.176;2022-10-19T15:01:38;23.57;;;5.60;;
4698;SDS011;33708;49.466;11.176;2022-10-19T15:04:05;12.30;;;6.20;;
4698;SDS011;33708;49.466;11.176;2022-10-19T15:06:31;16.03;;;5.40;;
4698;SDS011;33708;49.466;11.176;2022-10-19T15:09:00;14.17;;;5.70;;
4698;SDS011;33708;49.466;11.176;2022-10-19T15:11:30;11.13;;;5.27;;
4698;SDS011;33708;49.466;11.176;2022-10-19T15:19:03;11.50;;;5.10;;
4698;SDS011;33708;49.466;11.176;2022-10-19T15:21:30;13.23;;;5.13;;
4698;SDS011;33708;49.466;11.176;2022-10-19T15:24:04;9.40;;;4.33;;
4698;SDS011;33708;49.466;11.176;2022-10-19T15:26:50;15.10;;;6.07;;
4698;SDS011;33708;49.466;11.176;2022-10-19T15:29:21;11.10;;;4.67;;
4698;SDS011;33708;49.466;11.176;2022-10-19T15:31:52;20.70;;;8.07;;
4698;SDS011;33708;49.466;11.176;2022-10-19T15:34:24;11.53;;;6.10;;
4698;SDS011;33708;49.466;11.176;2022-10-19T15:36:56;12.80;;;7.20;;
4698;SDS011;33708;49.466;11.176;2022-10-19T15:39:29;19.63;;;8.30;;
4698;SDS011;33708;49.466;11.176;2022-10-19T15:42:20;14.13;;;7.63;;
4698;SDS011;33708;49.466;11.176;2022-10-19T15:44:47;13.43;;;5.70;;
4698;SDS011;33708;49.466;11.176;2022-10-19T15:52:24;18.23;;;10.90;;
4698;SDS011;33708;49.466;11.176;2022-10-19T15:54:55;13.50;;;6.80;;
4698;SDS011;33708;49.466;11.176;2022-10-19T16:00:00;20.83;;;7.33;;
4698;SDS011;33708;49.466;11.176;2022-10-19T16:02:32;13.43;;;5.20;;
4698;SDS011;33708;49.466;11.176;2022-10-19T16:04:57;16.07;;;4.60;;
4698;SDS011;33708;49.466;11.176;2022-10-19T16:07:27;13.93;;;5.33;;
4698;SDS011;33708;49.466;11.176;2022-10-19T16:09:56;11.70;;;5.30;;
4698;SDS011;33708;49.466;11.176;2022-10-19T16:12:22;19.83;;;5.37;;
4698;SDS011;33708;49.466;11.176;2022-10-19T16:14:50;23.33;;;5.43;;
4698;SDS011;33708;49.466;11.176;2022-10-19T16:17:16;14.47;;;5.10;;
4698;SDS011;33708;49.466;11.176;2022-10-19T16:19:42;20.23;;;5.20;;
4698;SDS011;33708;49.466;11.176;2022-10-19T16:22:08;15.77;;;5.43;;
4698;SDS011;33708;49.466;11.176;2022-10-19T16:24:35;10.90;;;4.70;;
4698;SDS011;33708;49.466;11.176;2022-10-19T16:27:00;14.03;;;5.17;;
4698;SDS011;33708;49.466;11.176;2022-10-19T16:29:26;14.73;;;5.20;;
4698;SDS011;33708;49.466;11.176;2022-10-19T16:31:52;13.73;;;5.13;;
4698;SDS011;33708;49.466;11.176;2022-10-19T16:34:17;18.33;;;4.90;;
4698;SDS011;33708;49.466;11.176;2022-10-19T16:36:43;9.90;;;5.20;;
4698;SDS011;33708;49.466;11.176;2022-10-19T16:39:09;18.10;;;4.80;;
4698;SDS011;33708;49.466;11.176;2022-10-19T16:41:34;19.20;;;5.37;;
4698;SDS011;33708;49.466;11.176;2022-10-19T16:44:00;25.67;;;5.93;;
4698;SDS011;33708;49.466;11.176;2022-10-19T16:46:26;11.50;;;6.03;;
4698;SDS011;33708;49.466;11.176;2022-10-19T16:48:51;14.50;;;6.27;;
4698;SDS011;33708;49.466;11.176;2022-10-19T16:51:19;23.03;;;6.03;;
4698;SDS011;33708;49.466;11.176;2022-10-19T16:53:52;19.63;;;6.10;;
4698;SDS011;33708;49.466;11.176;2022-10-19T16:56:20;11.07;;;5.17;;
4698;SDS011;33708;49.466;11.176;2022-10-19T16:58:47;13.13;;;5.53;;
4698;SDS011;33708;49.466;11.176;2022-10-19T17:01:13;19.77;;;7.63;;
4698;SDS011;33708;49.466;11.176;2022-10-19T17:03:43;10.67;;;5.07;;
4698;SDS011;33708;49.466;11.176;2022-10-19T17:06:10;13.80;;;5.70;;
4698;SDS011;33708;49.466;11.176;2022-10-19T17:08:36;17.10;;;5.57;;
4698;SDS011;33708;49.466;11.176;2022-10-19T17:11:12;12.33;;;5.70;;
4698;SDS011;33708;49.466;11.176;2022-10-19T17:13:43;22.03;;;5.70;;
4698;SDS011;33708;49.466;11.176;2022-10-19T17:16:10;23.90;;;5.90;;
4698;SDS011;33708;49.466;11.176;2022-10-19T17:18:36;16.53;;;5.30;;